Time;durP1;ratioP1;P1;durP2;ratioP2;P2;SDS_P1;SDS_P2;PMS_P1;PMS_P2;Temp;Humidity;BMP_temperature;BMP_pressure;BME280_temperature;BME280_humidity;BME280_pressure;Samples;Min_cycle;Max_cycle;Signal;HPM_P1;HPM_P2
2023/12/08 00:00:57;;;;;;;48.72;24.42;;;;;;;-146.25;100.00;52670.31;2079743;28;33888;-71
2023/12/08 00:02:00;;;;;;;50.80;26.45;;;;;;;-146.25;100.00;52672.34;2079952;28;34662;-72
2023/12/08 00:03:01;;;;;;;45.22;24.13;;;;;;;-146.25;100.00;52668.28;2079170;28;42501;-71
2023/12/08 00:04:03;;;;;;;48.95;25.15;;;;;;;-146.25;100.00;52688.56;2079831;28;44817;-72
2023/12/08 00:05:05;;;;;;;42.63;22.77;;;;;;;-146.25;100.00;52688.56;2079210;28;45171;-72
2023/12/08 00:06:07;;;;;;;49.33;25.73;;;;;;;-146.25;100.00;52672.34;2079847;28;39779;-72
2023/12/08 00:07:11;;;;;;;46.30;25.42;;;;;;;-146.25;100.00;52672.34;2079963;28;20042;-72
2023/12/08 00:08:17;;;;;;;43.58;24.02;;;;;;;-146.25;100.00;52680.47;2079422;28;40927;-72
2023/12/08 00:09:19;;;;;;;47.08;25.02;;;;;;;-146.25;100.00;52672.34;2079200;28;40050;-72
2023/12/08 00:10:20;;;;;;;48.25;26.17;;;;;;;-146.25;100.00;52684.50;2079485;28;44801;-72
2023/12/08 00:11:22;;;;;;;41.20;23.08;;;;;;;-146.25;100.00;52686.53;2079504;28;38531;-71
2023/12/08 00:12:24;;;;;;;45.17;23.73;;;;;;;-146.25;100.00;52706.81;2079499;28;41953;-71
2023/12/08 00:13:26;;;;;;;45.35;24.35;;;;;;;-146.25;100.00;52684.50;2079386;28;44893;-72
2023/12/08 00:14:27;;;;;;;43.17;24.02;;;;;;;-146.25;100.00;52684.50;2079838;28;43553;-72
2023/12/08 00:15:32;;;;;;;44.85;23.75;;;;;;;-146.25;100.00;52692.63;2079575;28;33511;-73
2023/12/08 00:16:34;;;;;;;41.10;23.40;;;;;;;-146.25;100.00;52686.53;2079541;28;41491;-73
2023/12/08 00:17:35;;;;;;;42.65;23.40;;;;;;;-146.25;100.00;52676.41;2080163;28;20046;-72
2023/12/08 00:18:37;;;;;;;44.53;23.98;;;;;;;-146.25;100.00;52674.38;2079604;28;45181;-72
2023/12/08 00:19:40;;;;;;;45.45;25.63;;;;;;;-146.25;100.00;52645.97;2079320;28;41197;-72
2023/12/08 00:20:42;;;;;;;45.15;23.92;;;;;;;-146.25;100.00;52676.41;2072314;28;20038;-70
2023/12/08 00:21:44;;;;;;;41.13;23.05;;;;;;;-146.25;100.00;52696.69;2071755;28;39367;-71
2023/12/08 00:22:46;;;;;;;42.85;23.65;;;;;;;-146.25;100.00;52698.72;2071777;28;39124;-71
2023/12/08 00:23:49;;;;;;;42.70;23.48;;;;;;;-146.25;100.00;52739.25;2071164;28;42033;-71
2023/12/08 00:24:50;;;;;;;42.55;23.77;;;;;;;-146.25;100.00;52692.63;2071364;28;39083;-72
2023/12/08 00:25:54;;;;;;;41.60;23.40;;;;;;;-146.25;100.00;52686.53;2071161;28;45933;-71
2023/12/08 00:26:56;;;;;;;41.40;23.45;;;;;;;-146.25;100.00;52670.31;2071442;28;40364;-72
2023/12/08 00:27:58;;;;;;;41.78;22.98;;;;;;;-146.25;100.00;52648.00;2071311;28;41997;-71
2023/12/08 00:29:00;;;;;;;40.83;22.75;;;;;;;-146.25;100.00;52682.47;2071497;28;44111;-72
2023/12/08 00:30:01;;;;;;;43.78;24.42;;;;;;;-146.25;100.00;52708.84;2071128;28;42393;-70
2023/12/08 00:31:04;;;;;;;40.03;22.90;;;;;;;-146.25;100.00;52708.84;2071480;28;42534;-73
2023/12/08 00:32:05;;;;;;;43.42;24.15;;;;;;;-146.25;100.00;52672.34;2071807;28;20038;-71
2023/12/08 00:33:09;;;;;;;43.10;24.08;;;;;;;-146.25;100.00;52676.41;2071634;28;43850;-72
2023/12/08 00:34:11;;;;;;;39.83;23.02;;;;;;;-146.25;100.00;52696.69;2070439;28;40233;-70
2023/12/08 00:35:13;;;;;;;40.38;23.38;;;;;;;-146.25;100.00;52682.47;2071740;28;20168;-72
2023/12/08 00:36:16;;;;;;;44.08;24.73;;;;;;;-146.25;100.00;52694.66;2070935;28;45052;-71
2023/12/08 00:37:18;;;;;;;40.78;24.08;;;;;;;-146.25;100.00;52676.41;2071503;28;39866;-72
2023/12/08 00:38:20;;;;;;;41.38;23.70;;;;;;;-146.25;100.00;52668.28;2071937;28;20876;-72
2023/12/08 00:39:22;;;;;;;42.22;23.73;;;;;;;-146.25;100.00;52694.66;2071216;28;41665;-72
2023/12/08 00:40:23;;;;;;;45.35;23.38;;;;;;;-146.25;100.00;52656.13;2071054;28;38373;-71
2023/12/08 00:41:25;;;;;;;38.00;22.27;;;;;;;-146.25;100.00;52684.50;2072075;28;20081;-71
2023/12/08 00:42:27;;;;;;;37.53;22.08;;;;;;;-146.25;100.00;52660.19;2071260;28;40112;-71
2023/12/08 00:43:29;;;;;;;38.78;22.70;;;;;;;-146.25;100.00;52698.72;2071750;28;42369;-72
2023/12/08 00:44:31;;;;;;;39.70;22.20;;;;;;;-146.25;100.00;52676.41;2070855;28;40434;-70
2023/12/08 00:45:32;;;;;;;39.28;22.30;;;;;;;-146.25;100.00;52672.34;2071411;28;45908;-72
2023/12/08 00:46:34;;;;;;;42.30;23.30;;;;;;;-146.25;100.00;52676.41;2071689;28;41684;-71
2023/12/08 00:47:36;;;;;;;36.50;21.67;;;;;;;-146.25;100.00;52716.97;2073615;28;21184;-71
2023/12/08 00:48:38;;;;;;;39.08;22.08;;;;;;;-146.25;100.00;52668.28;2072719;28;42400;-71
2023/12/08 00:49:40;;;;;;;39.97;21.13;;;;;;;-146.25;100.00;52672.34;2073581;28;20042;-72
2023/12/08 00:50:42;;;;;;;37.83;21.77;;;;;;;-146.25;100.00;52712.91;2071746;28;42958;-71
2023/12/08 00:51:46;;;;;;;38.22;22.95;;;;;;;-146.25;100.00;52690.59;2072122;28;45953;-72
2023/12/08 00:52:48;;;;;;;37.05;21.48;;;;;;;-146.25;100.00;52684.50;2072460;28;46641;-71
2023/12/08 00:53:50;;;;;;;35.45;21.15;;;;;;;-146.25;100.00;52678.44;2072839;28;21731;-72
2023/12/08 00:54:51;;;;;;;41.20;21.63;;;;;;;-146.25;100.00;52686.53;2071534;28;42083;-71
2023/12/08 00:55:55;;;;;;;40.03;22.10;;;;;;;-146.25;100.00;52680.47;2072063;28;45539;-71
2023/12/08 00:56:57;;;;;;;37.88;21.77;;;;;;;-146.25;100.00;52686.53;2072315;28;41480;-72
2023/12/08 00:57:59;;;;;;;37.30;22.65;;;;;;;-146.25;100.00;52648.00;2072345;28;46178;-72
2023/12/08 00:59:01;;;;;;;36.10;21.77;;;;;;;-146.25;100.00;52706.81;2073289;28;20035;-72
2023/12/08 01:00:04;;;;;;;38.17;22.38;;;;;;;-146.25;100.00;52692.63;2072510;28;42575;-71
2023/12/08 01:01:06;;;;;;;36.28;21.70;;;;;;;-146.25;100.00;52702.75;2072500;28;39477;-71
2023/12/08 01:02:08;;;;;;;35.70;19.70;;;;;;;-146.25;100.00;52688.56;2073106;28;28241;-72
2023/12/08 01:03:09;;;;;;;34.65;20.75;;;;;;;-146.25;100.00;52680.47;2072429;28;41988;-71
2023/12/08 01:04:11;;;;;;;38.58;21.90;;;;;;;-146.25;100.00;52700.72;2072331;28;40918;-72
2023/12/08 01:05:13;;;;;;;33.38;19.75;;;;;;;-146.25;100.00;52676.41;2073847;28;20042;-72
2023/12/08 01:06:15;;;;;;;35.85;21.00;;;;;;;-146.25;100.00;52672.34;2071861;28;36814;-72
2023/12/08 01:07:16;;;;;;;39.22;21.52;;;;;;;-146.25;100.00;52670.31;2071954;28;31056;-72
2023/12/08 01:08:18;;;;;;;36.33;20.90;;;;;;;-146.25;100.00;52737.22;2073136;28;20839;-72
2023/12/08 01:09:24;;;;;;;36.05;21.05;;;;;;;-146.25;100.00;52694.66;2072009;28;37782;-72
2023/12/08 01:10:25;;;;;;;35.65;19.83;;;;;;;-146.25;100.00;52716.97;2072201;28;32759;-72
2023/12/08 01:11:30;;;;;;;37.42;21.33;;;;;;;-146.25;100.00;52714.94;2073561;28;20803;-72
2023/12/08 01:12:34;;;;;;;34.53;20.52;;;;;;;-146.25;100.00;52660.19;2071919;28;35431;-72
2023/12/08 01:13:36;;;;;;;33.78;18.73;;;;;;;-146.25;100.00;52688.56;2072632;28;34033;-71
2023/12/08 01:14:37;;;;;;;31.65;19.27;;;;;;;-146.25;100.00;52694.66;2072114;28;34380;-72
2023/12/08 01:15:39;;;;;;;33.25;20.15;;;;;;;-146.25;100.00;52662.22;2072024;28;34700;-70
2023/12/08 01:16:41;;;;;;;34.78;19.42;;;;;;;-146.25;100.00;52698.72;2072980;28;35707;-72
2023/12/08 01:17:45;;;;;;;34.10;20.45;;;;;;;-146.25;100.00;52712.91;2072812;28;20270;-72
2023/12/08 01:18:47;;;;;;;30.08;19.65;;;;;;;-146.25;100.00;52680.47;2071954;28;37934;-72
2023/12/08 01:19:49;;;;;;;31.88;19.35;;;;;;;-146.25;100.00;52678.44;2073272;28;20043;-71
2023/12/08 01:20:54;;;;;;;31.77;18.45;;;;;;;-146.25;100.00;52660.19;2073019;28;30273;-73
2023/12/08 01:21:58;;;;;;;39.17;19.90;;;;;;;-146.25;100.00;52678.44;2072265;28;36356;-71
2023/12/08 01:23:00;;;;;;;30.52;18.70;;;;;;;-146.25;100.00;52660.19;2072370;28;33456;-67
2023/12/08 01:24:03;;;;;;;34.58;19.45;;;;;;;-146.25;100.00;52698.72;2072522;28;33174;-71
2023/12/08 01:25:06;;;;;;;31.90;19.08;;;;;;;-146.25;100.00;52658.16;2072644;28;36469;-71
2023/12/08 01:26:11;;;;;;;31.90;17.98;;;;;;;-146.25;100.00;52684.50;2072688;28;20034;-71
2023/12/08 01:27:13;;;;;;;33.40;19.40;;;;;;;-146.25;100.00;52662.22;2072006;28;36911;-69
2023/12/08 01:28:15;;;;;;;32.13;18.98;;;;;;;-146.25;100.00;52704.78;2073101;28;20042;-71
2023/12/08 01:29:17;;;;;;;29.48;17.88;;;;;;;-146.25;100.00;52739.25;2063834;28;36298;-71
2023/12/08 01:30:19;;;;;;;29.92;18.17;;;;;;;-146.25;100.00;52714.94;2064000;28;36450;-71
2023/12/08 01:31:21;;;;;;;32.30;18.58;;;;;;;-146.25;100.00;52668.28;2072518;28;20824;-72
2023/12/08 01:32:23;;;;;;;31.05;17.25;;;;;;;-146.25;100.00;52696.69;2071757;28;37498;-71
2023/12/08 01:33:27;;;;;;;28.60;17.33;;;;;;;-146.25;100.00;52668.28;2072162;28;33227;-71
2023/12/08 01:34:29;;;;;;;27.55;17.23;;;;;;;-146.25;100.00;52694.66;2072403;28;20027;-72
2023/12/08 01:35:30;;;;;;;29.80;18.65;;;;;;;-146.25;100.00;52668.28;2071655;28;38531;-72
2023/12/08 01:36:32;;;;;;;32.10;19.00;;;;;;;-146.25;100.00;52723.03;2072857;28;32245;-70
2023/12/08 01:37:40;;;;;;;28.48;17.63;;;;;;;-146.25;100.00;52686.53;2073257;28;20042;-71
2023/12/08 01:38:46;;;;;;;29.85;16.10;;;;;;;-146.25;100.00;52652.06;2072223;28;35518;-70
2023/12/08 01:39:52;;;;;;;31.15;17.15;;;;;;;-146.25;100.00;52692.63;2072868;28;33485;-71
2023/12/08 01:40:54;;;;;;;27.35;16.58;;;;;;;-146.25;100.00;52714.94;2072567;28;35049;-72
2023/12/08 01:41:56;;;;;;;29.52;16.70;;;;;;;-146.25;100.00;52704.78;2072694;28;33235;-72
2023/12/08 01:42:58;;;;;;;30.98;18.13;;;;;;;-146.25;100.00;52696.69;2072270;28;31952;-71
2023/12/08 01:44:02;;;;;;;29.45;17.85;;;;;;;-146.25;100.00;52680.47;2072915;28;33811;-72
2023/12/08 01:45:04;;;;;;;29.80;17.83;;;;;;;-146.25;100.00;52696.69;2072219;28;33918;-71
2023/12/08 01:46:07;;;;;;;30.83;17.30;;;;;;;-146.25;100.00;52688.56;2072616;28;33616;-71
2023/12/08 01:47:12;;;;;;;27.00;16.58;;;;;;;-146.25;100.00;52729.13;2072596;28;29881;-72
2023/12/08 01:48:14;;;;;;;28.58;17.65;;;;;;;-146.25;100.00;52710.88;2072675;28;31429;-71
2023/12/08 01:49:17;;;;;;;27.95;17.50;;;;;;;-146.25;100.00;52692.63;2071475;28;35002;-71
2023/12/08 01:50:19;;;;;;;28.60;17.60;;;;;;;-146.25;100.00;52682.47;2064620;28;35286;-72
2023/12/08 01:51:21;;;;;;;26.90;16.48;;;;;;;-146.25;100.00;52727.09;2071924;28;35303;-71
2023/12/08 01:52:24;;;;;;;25.38;15.73;;;;;;;-146.25;100.00;52731.16;2072658;28;35679;-70
2023/12/08 01:53:26;;;;;;;29.50;17.90;;;;;;;-146.25;100.00;52684.50;2072027;28;20038;-71
2023/12/08 01:54:28;;;;;;;25.08;15.48;;;;;;;-146.25;100.00;52708.84;2064192;28;29393;-71
2023/12/08 01:55:31;;;;;;;27.73;16.60;;;;;;;-146.25;100.00;52690.59;2071962;28;33474;-71
2023/12/08 01:56:33;;;;;;;27.13;17.77;;;;;;;-146.25;100.00;52733.19;2072464;28;20134;-71
2023/12/08 01:57:34;;;;;;;27.85;17.40;;;;;;;-146.25;100.00;52676.41;2071755;28;37688;-71
2023/12/08 01:58:37;;;;;;;26.98;15.25;;;;;;;-146.25;100.00;52682.47;2072055;28;33654;-71
2023/12/08 01:59:42;;;;;;;27.05;16.77;;;;;;;-146.25;100.00;52692.63;2072298;28;39834;-71
2023/12/08 02:00:47;;;;;;;27.38;16.88;;;;;;;-146.25;100.00;52668.28;2073085;28;20169;-71
2023/12/08 02:01:48;;;;;;;27.27;16.52;;;;;;;-146.25;100.00;52712.91;2073008;28;20042;-71
2023/12/08 02:02:50;;;;;;;25.75;17.23;;;;;;;-146.25;100.00;52702.75;2072523;28;35905;-72
2023/12/08 02:03:52;;;;;;;25.75;16.63;;;;;;;-146.25;100.00;52668.28;2071968;28;35359;-71
2023/12/08 02:04:57;;;;;;;25.98;17.00;;;;;;;-146.25;100.00;52648.00;2071818;28;34385;-73
2023/12/08 02:06:00;;;;;;;26.63;15.80;;;;;;;-146.25;100.00;52686.53;2064435;28;34904;-72
2023/12/08 02:07:02;;;;;;;25.27;16.00;;;;;;;-146.25;100.00;52727.09;2071560;28;36893;-73
2023/12/08 02:08:04;;;;;;;25.83;15.50;;;;;;;-146.25;100.00;52688.56;2073061;28;20054;-72
2023/12/08 02:09:07;;;;;;;24.77;15.82;;;;;;;-146.25;100.00;52721.00;2072159;28;35655;-72
2023/12/08 02:10:10;;;;;;;24.73;14.57;;;;;;;-146.25;100.00;52710.88;2072030;28;20047;-72
2023/12/08 02:11:13;;;;;;;25.15;16.88;;;;;;;-146.25;100.00;52664.22;2071780;28;31316;-72
2023/12/08 02:12:17;;;;;;;24.58;15.27;;;;;;;-146.25;100.00;52648.00;2072425;28;36352;-73
2023/12/08 02:13:21;;;;;;;26.85;16.02;;;;;;;-146.25;100.00;52696.69;2073056;28;20053;-74
2023/12/08 02:14:22;;;;;;;25.02;15.52;;;;;;;-146.25;100.00;52686.53;2071581;28;32838;-73
2023/12/08 02:15:24;;;;;;;26.58;15.55;;;;;;;-146.25;100.00;52692.63;2063875;28;31399;-73
2023/12/08 02:16:43;;;;;;;25.98;15.60;;;;;;;-146.25;100.00;52702.75;2071399;28;34254;-72
2023/12/08 02:17:49;;;;;;;24.30;14.40;;;;;;;-146.25;100.00;52684.50;2071915;28;34991;-72
2023/12/08 02:18:52;;;;;;;26.67;14.93;;;;;;;-146.25;100.00;52698.72;2066250;28;31085;-72
2023/12/08 02:19:55;;;;;;;25.38;15.95;;;;;;;-146.25;100.00;52676.41;2071783;28;34389;-72
2023/12/08 02:20:56;;;;;;;24.00;14.82;;;;;;;-146.25;100.00;52702.75;2071305;28;31997;-73
2023/12/08 02:21:59;;;;;;;23.38;14.35;;;;;;;-146.25;100.00;52694.66;2064729;28;20055;-73
2023/12/08 02:23:05;;;;;;;24.27;14.73;;;;;;;-146.25;100.00;52721.00;2063816;28;36781;-72
2023/12/08 02:24:07;;;;;;;24.27;14.32;;;;;;;-146.25;100.00;52716.97;2064578;28;36186;-73
2023/12/08 02:25:09;;;;;;;23.77;15.35;;;;;;;-146.25;100.00;52725.06;2072410;28;20039;-72
2023/12/08 02:26:11;;;;;;;22.30;14.73;;;;;;;-146.25;100.00;52706.81;2072189;28;33786;-72
2023/12/08 02:27:13;;;;;;;26.98;15.25;;;;;;;-146.25;100.00;52672.34;2072481;28;32279;-72
2023/12/08 02:28:15;;;;;;;23.55;14.20;;;;;;;-146.25;100.00;52723.03;2072469;28;20022;-73
2023/12/08 02:29:17;;;;;;;24.45;14.35;;;;;;;-146.25;100.00;52704.78;2071257;28;36992;-72
2023/12/08 02:30:18;;;;;;;26.23;14.60;;;;;;;-146.25;100.00;52712.91;2072012;28;32651;-72
2023/12/08 02:31:27;;;;;;;23.52;14.45;;;;;;;-146.25;100.00;52686.53;2071719;28;36627;-71
2023/12/08 02:32:38;;;;;;;23.77;14.70;;;;;;;-146.25;100.00;52684.50;2072781;28;33184;-73
2023/12/08 02:33:43;;;;;;;22.70;14.80;;;;;;;-146.25;100.00;52706.81;2072253;28;33630;-73
2023/12/08 02:34:48;;;;;;;23.75;14.88;;;;;;;-146.25;100.00;52712.91;2072324;28;37132;-72
2023/12/08 02:35:50;;;;;;;26.08;15.52;;;;;;;-146.25;100.00;52733.19;2072558;28;20046;-73
2023/12/08 02:36:53;;;;;;;23.90;14.20;;;;;;;-146.25;100.00;52690.59;2071621;28;35648;-72
2023/12/08 02:37:58;;;;;;;23.05;13.95;;;;;;;-146.25;100.00;52678.44;2071006;28;37783;-73
2023/12/08 02:39:03;;;;;;;23.98;14.88;;;;;;;-146.25;100.00;52654.09;2064556;28;20043;-72
2023/12/08 02:40:06;;;;;;;19.55;12.38;;;;;;;-146.25;100.00;52704.78;2064269;28;33058;-72
2023/12/08 02:41:08;;;;;;;25.98;13.95;;;;;;;-146.25;100.00;52682.47;2064189;28;37062;-73
2023/12/08 02:42:10;;;;;;;20.98;14.25;;;;;;;-146.25;100.00;52716.97;2063920;28;33928;-72
2023/12/08 02:43:12;;;;;;;23.10;14.48;;;;;;;-146.25;100.00;52702.75;2072198;28;20207;-73
2023/12/08 02:44:16;;;;;;;22.52;13.55;;;;;;;-146.25;100.00;52682.47;2072210;28;33174;-73
2023/12/08 02:45:18;;;;;;;26.05;15.10;;;;;;;-146.25;100.00;52680.47;2071417;28;37086;-72
2023/12/08 02:46:19;;;;;;;21.92;14.10;;;;;;;-146.25;100.00;52729.13;2072394;28;20053;-73
2023/12/08 02:47:23;;;;;;;22.65;13.38;;;;;;;-146.25;100.00;52686.53;2071742;28;36598;-72
2023/12/08 02:48:25;;;;;;;21.27;14.00;;;;;;;-146.25;100.00;52704.78;2072130;28;34153;-72
2023/12/08 02:49:27;;;;;;;22.50;13.75;;;;;;;-146.25;100.00;52684.50;2079764;28;20034;-73
2023/12/08 02:50:29;;;;;;;22.73;13.95;;;;;;;-146.25;100.00;52708.84;2071912;28;37189;-72
2023/12/08 02:51:30;;;;;;;23.38;14.73;;;;;;;-146.25;100.00;52714.94;2072459;28;27605;-73
2023/12/08 02:52:32;;;;;;;21.75;13.70;;;;;;;-146.25;100.00;52670.31;2072085;28;34717;-72
2023/12/08 02:53:34;;;;;;;24.15;14.48;;;;;;;-146.25;100.00;52729.13;2071669;28;39703;-72
2023/12/08 02:54:36;;;;;;;20.67;12.90;;;;;;;-146.25;100.00;52727.09;2072556;28;20093;-72
2023/12/08 02:55:38;;;;;;;22.25;13.63;;;;;;;-146.25;100.00;52731.16;2071938;28;36096;-72
2023/12/08 02:56:40;;;;;;;21.05;13.20;;;;;;;-146.25;100.00;52727.09;2072034;28;33543;-72
2023/12/08 02:57:41;;;;;;;20.85;13.85;;;;;;;-146.25;100.00;52702.75;2072158;28;35858;-73
2023/12/08 02:58:43;;;;;;;20.95;13.40;;;;;;;-146.25;100.00;52678.44;2071030;28;33645;-72
2023/12/08 02:59:45;;;;;;;23.27;14.27;;;;;;;-146.25;100.00;52718.97;2072131;28;35550;-74
2023/12/08 03:00:47;;;;;;;21.65;12.77;;;;;;;-146.25;100.00;52704.78;2071927;28;20039;-72
2023/12/08 03:01:48;;;;;;;23.40;14.38;;;;;;;-146.25;100.00;52696.69;2079867;28;37132;-72
2023/12/08 03:02:50;;;;;;;21.63;13.23;;;;;;;-146.25;100.00;52737.22;2079596;28;31307;-72
2023/12/08 03:03:52;;;;;;;21.13;13.43;;;;;;;-146.25;100.00;52729.13;2072300;28;33950;-72
2023/12/08 03:04:54;;;;;;;22.05;13.38;;;;;;;-146.25;100.00;52714.94;2071923;28;36836;-72
2023/12/08 03:05:56;;;;;;;22.90;13.35;;;;;;;-146.25;100.00;52700.72;2072993;28;20108;-72
2023/12/08 03:06:57;;;;;;;21.55;13.70;;;;;;;-146.25;100.00;52680.47;2079269;28;37071;-72
2023/12/08 03:07:59;;;;;;;21.40;14.10;;;;;;;-146.25;100.00;52716.97;2079628;28;33807;-71
2023/12/08 03:09:01;;;;;;;17.85;12.23;;;;;;;-146.25;100.00;52712.91;2071511;28;34325;-73
2023/12/08 03:10:03;;;;;;;20.98;14.63;;;;;;;-146.25;100.00;52664.22;2079056;28;35658;-70
2023/12/08 03:11:05;;;;;;;22.05;13.82;;;;;;;-146.25;100.00;52688.56;2079045;28;35144;-72
2023/12/08 03:12:06;;;;;;;20.10;13.07;;;;;;;-146.25;100.00;52698.72;2071903;28;35068;-72
2023/12/08 03:13:08;;;;;;;23.02;13.80;;;;;;;-146.25;100.00;52672.34;2071989;28;32890;-72
2023/12/08 03:14:10;;;;;;;21.90;13.68;;;;;;;-146.25;100.00;52721.00;2071916;28;34675;-72
2023/12/08 03:15:12;;;;;;;20.15;13.88;;;;;;;-146.25;100.00;52692.63;2071995;28;33254;-72
2023/12/08 03:16:14;;;;;;;22.25;13.65;;;;;;;-146.25;100.00;52692.63;2071872;28;37771;-73
2023/12/08 03:17:15;;;;;;;20.13;12.52;;;;;;;-146.25;100.00;52676.41;2071775;28;35255;-72
2023/12/08 03:18:17;;;;;;;21.20;13.63;;;;;;;-146.25;100.00;52690.59;2071985;28;30882;-72
2023/12/08 03:19:19;;;;;;;21.27;13.07;;;;;;;-146.25;100.00;52729.13;2072221;28;36743;-72
2023/12/08 03:20:21;;;;;;;20.35;13.65;;;;;;;-146.25;100.00;52708.84;2072791;28;20082;-73
2023/12/08 03:21:23;;;;;;;19.90;12.82;;;;;;;-146.25;100.00;52680.47;2071622;28;34558;-72
2023/12/08 03:22:26;;;;;;;20.35;12.65;;;;;;;-146.25;100.00;52680.47;2079760;28;31495;-72
2023/12/08 03:23:28;;;;;;;20.77;13.40;;;;;;;-146.25;100.00;52704.78;2079180;28;20169;-72
2023/12/08 03:24:30;;;;;;;19.48;12.70;;;;;;;-146.25;100.00;52721.00;2072043;28;34074;-72
2023/12/08 03:25:32;;;;;;;19.90;13.25;;;;;;;-146.25;100.00;52670.31;2071514;28;37847;-72
2023/12/08 03:26:33;;;;;;;20.00;13.18;;;;;;;-146.25;100.00;52692.63;2072314;28;33184;-72
2023/12/08 03:27:35;;;;;;;19.27;12.63;;;;;;;-146.25;100.00;52700.72;2078948;28;37158;-72
2023/12/08 03:28:37;;;;;;;17.83;12.10;;;;;;;-146.25;100.00;52712.91;2079194;28;33069;-72
2023/12/08 03:29:40;;;;;;;20.65;12.43;;;;;;;-146.25;100.00;52696.69;2071434;28;33759;-72
2023/12/08 03:30:42;;;;;;;21.15;13.30;;;;;;;-146.25;100.00;52718.97;2071523;28;39073;-72
2023/12/08 03:31:44;;;;;;;22.40;13.48;;;;;;;-146.25;100.00;52696.69;2071542;28;34655;-72
2023/12/08 03:32:47;;;;;;;20.42;13.48;;;;;;;-146.25;100.00;52708.84;2079631;28;35619;-72
2023/12/08 03:33:49;;;;;;;21.95;13.32;;;;;;;-146.25;100.00;52747.38;2079027;28;36241;-72
2023/12/08 03:34:51;;;;;;;19.25;12.93;;;;;;;-146.25;100.00;52725.06;2072671;28;20043;-72
2023/12/08 03:35:53;;;;;;;16.85;11.90;;;;;;;-146.25;100.00;52700.72;2071533;28;35689;-72
2023/12/08 03:36:54;;;;;;;18.45;12.00;;;;;;;-146.25;100.00;52694.66;2072066;28;33828;-72
2023/12/08 03:37:56;;;;;;;19.00;12.80;;;;;;;-146.25;100.00;52712.91;2071160;28;35816;-72
2023/12/08 03:38:58;;;;;;;20.73;13.13;;;;;;;-146.25;100.00;52684.50;2071974;28;33679;-72
2023/12/08 03:40:00;;;;;;;19.35;11.50;;;;;;;-146.25;100.00;52704.78;2079296;28;35936;-72
2023/12/08 03:41:02;;;;;;;18.25;12.10;;;;;;;-146.25;100.00;52706.81;2079467;28;29749;-72
2023/12/08 03:42:04;;;;;;;20.02;13.00;;;;;;;-146.25;100.00;52729.13;2072127;28;32906;-70
2023/12/08 03:43:05;;;;;;;22.30;13.15;;;;;;;-146.25;100.00;52668.28;2072085;28;34630;-71
2023/12/08 03:44:10;;;;;;;18.17;12.15;;;;;;;-146.25;100.00;52702.75;2071092;28;34070;-72
2023/12/08 03:45:11;;;;;;;20.60;12.52;;;;;;;-146.25;100.00;52688.56;2071294;28;31253;-72
2023/12/08 03:46:13;;;;;;;19.02;12.93;;;;;;;-146.25;100.00;52684.50;2071577;28;31611;-71
2023/12/08 03:47:16;;;;;;;19.33;12.85;;;;;;;-146.25;100.00;52708.84;2071539;28;35387;-72
2023/12/08 03:48:18;;;;;;;18.95;12.68;;;;;;;-146.25;100.00;52670.31;2072089;28;20162;-72
2023/12/08 03:49:20;;;;;;;20.52;12.60;;;;;;;-146.25;100.00;52656.13;2071784;28;38338;-71
2023/12/08 03:50:22;;;;;;;18.35;12.27;;;;;;;-146.25;100.00;52712.91;2071841;28;31216;-71
2023/12/08 03:51:24;;;;;;;20.13;12.55;;;;;;;-146.25;100.00;52700.72;2072655;28;35948;-71
2023/12/08 03:52:28;;;;;;;19.58;13.50;;;;;;;-146.25;100.00;52706.81;2071615;28;37149;-70
2023/12/08 03:53:31;;;;;;;19.55;12.27;;;;;;;-146.25;100.00;52710.88;2071068;28;31721;-71
2023/12/08 03:54:33;;;;;;;20.63;12.52;;;;;;;-146.25;100.00;52704.78;2071716;28;20085;-71
2023/12/08 03:55:38;;;;;;;20.15;12.27;;;;;;;-146.25;100.00;52729.13;2072418;28;20038;-73
2023/12/08 03:56:40;;;;;;;16.98;12.65;;;;;;;-146.25;100.00;52692.63;2071684;28;29817;-71
2023/12/08 03:57:41;;;;;;;19.50;12.43;;;;;;;-146.25;100.00;52725.06;2071251;28;34309;-72
2023/12/08 03:58:44;;;;;;;17.08;11.10;;;;;;;-146.25;100.00;52721.00;2070936;28;34778;-71
2023/12/08 03:59:46;;;;;;;23.63;12.77;;;;;;;-146.25;100.00;52718.97;2071270;28;32396;-71
2023/12/08 04:00:48;;;;;;;20.48;13.25;;;;;;;-146.25;100.00;52684.50;2070949;28;32576;-72
2023/12/08 04:01:55;;;;;;;21.45;13.25;;;;;;;-146.25;100.00;52731.16;2072537;28;20038;-72
2023/12/08 04:02:57;;;;;;;17.60;12.48;;;;;;;-146.25;100.00;52716.97;2071234;28;34949;-72
2023/12/08 04:03:59;;;;;;;22.77;12.52;;;;;;;-146.25;100.00;52696.69;2072425;28;34518;-72
2023/12/08 04:05:00;;;;;;;21.75;12.77;;;;;;;-146.25;100.00;52716.97;2071522;28;31562;-72
2023/12/08 04:06:02;;;;;;;19.05;12.10;;;;;;;-146.25;100.00;52714.94;2072199;28;31712;-72
2023/12/08 04:07:04;;;;;;;20.52;13.75;;;;;;;-146.25;100.00;52690.59;2071651;28;31942;-72
2023/12/08 04:08:06;;;;;;;21.63;12.65;;;;;;;-146.25;100.00;52725.06;2071177;28;33505;-72
2023/12/08 04:09:08;;;;;;;21.65;13.63;;;;;;;-146.25;100.00;52704.78;2062780;28;31677;-72
2023/12/08 04:10:09;;;;;;;22.20;13.35;;;;;;;-146.25;100.00;52692.63;2071066;28;35034;-72
2023/12/08 04:11:12;;;;;;;19.17;12.57;;;;;;;-146.25;100.00;52735.22;2070867;28;33915;-71
2023/12/08 04:12:13;;;;;;;19.23;12.70;;;;;;;-146.25;100.00;52688.56;2071196;28;37492;-73
2023/12/08 04:13:15;;;;;;;20.20;13.60;;;;;;;-146.25;100.00;52694.66;2071357;28;35838;-71
2023/12/08 04:14:17;;;;;;;20.40;12.07;;;;;;;-146.25;100.00;52718.97;2071865;28;33228;-73
2023/12/08 04:15:18;;;;;;;21.38;13.40;;;;;;;-146.25;100.00;52735.22;2071701;28;31892;-73
2023/12/08 04:16:20;;;;;;;22.25;13.23;;;;;;;-146.25;100.00;52731.16;2071674;28;33585;-73
2023/12/08 04:17:22;;;;;;;20.38;12.50;;;;;;;-146.25;100.00;52692.63;2071179;28;34091;-72
2023/12/08 04:18:24;;;;;;;20.48;13.60;;;;;;;-146.25;100.00;52721.00;2078945;28;41146;-73
2023/12/08 04:19:26;;;;;;;23.42;13.60;;;;;;;-146.25;100.00;52729.13;2078890;28;30707;-72
2023/12/08 04:20:28;;;;;;;21.92;13.23;;;;;;;-146.25;100.00;52702.75;2071486;28;36074;-72
2023/12/08 04:21:30;;;;;;;19.25;11.90;;;;;;;-146.25;100.00;52700.72;2071009;28;36150;-72
2023/12/08 04:22:32;;;;;;;20.33;13.13;;;;;;;-146.25;100.00;52694.66;2071740;28;33569;-73
2023/12/08 04:23:36;;;;;;;20.30;13.52;;;;;;;-146.25;100.00;52696.69;2071135;28;39115;-73
2023/12/08 04:24:38;;;;;;;21.83;13.45;;;;;;;-146.25;100.00;52706.81;2071646;28;27914;-73
2023/12/08 04:25:41;;;;;;;20.02;13.38;;;;;;;-146.25;100.00;52708.84;2071893;28;34786;-72
2023/12/08 04:26:43;;;;;;;19.27;13.70;;;;;;;-146.25;100.00;52690.59;2071644;28;33373;-73
2023/12/08 04:27:46;;;;;;;19.98;13.68;;;;;;;-146.25;100.00;52729.13;2072341;28;20129;-71
2023/12/08 04:28:47;;;;;;;21.40;13.35;;;;;;;-146.25;100.00;52694.66;2071400;28;35626;-73
2023/12/08 04:29:49;;;;;;;24.88;14.57;;;;;;;-146.25;100.00;52680.47;2071549;28;33258;-73
2023/12/08 04:30:51;;;;;;;21.90;13.82;;;;;;;-146.25;100.00;52660.19;2071479;28;20038;-73
2023/12/08 04:31:53;;;;;;;21.20;14.13;;;;;;;-146.25;100.00;52708.84;2070503;28;37009;-73
2023/12/08 04:32:55;;;;;;;21.20;13.52;;;;;;;-146.25;100.00;52710.88;2071827;28;29943;-73
2023/12/08 04:33:57;;;;;;;22.05;13.93;;;;;;;-146.25;100.00;52718.97;2071250;28;20050;-73
2023/12/08 04:34:59;;;;;;;20.27;13.40;;;;;;;-146.25;100.00;52712.91;2071651;28;20050;-73
2023/12/08 04:36:01;;;;;;;24.90;12.68;;;;;;;-146.25;100.00;52712.91;2071390;28;37662;-73
2023/12/08 04:37:04;;;;;;;21.33;13.52;;;;;;;-146.25;100.00;52682.47;2071295;28;36883;-73
2023/12/08 04:38:05;;;;;;;19.88;13.20;;;;;;;-146.25;100.00;52698.72;2072090;28;20939;-73